sensor_id;sensor_type;location;lat;lon;timestamp;pressure;altitude;pressure_sealevel;temperature;humidity
72896;BME280;61036;53.224;6.554;2024-02-26T00:00:00;97767.56;;;4.00;100.00
72896;BME280;61036;53.224;6.554;2024-02-26T00:02:26;97789.63;;;3.93;100.00
72896;BME280;61036;53.224;6.554;2024-02-26T00:04:51;97777.13;;;3.93;100.00
72896;BME280;61036;53.224;6.554;2024-02-26T00:07:17;97777.66;;;3.97;100.00
72896;BME280;61036;53.224;6.554;2024-02-26T00:09:42;97789.63;;;3.93;100.00
72896;BME280;61036;53.224;6.554;2024-02-26T00:12:08;97795.38;;;3.88;100.00
72896;BME280;61036;53.224;6.554;2024-02-26T00:14:33;97798.50;;;3.83;100.00
72896;BME280;61036;53.224;6.554;2024-02-26T00:16:59;97802.16;;;3.82;100.00
72896;BME280;61036;53.224;6.554;2024-02-26T00:19:25;97810.59;;;3.78;100.00
72896;BME280;61036;53.224;6.554;2024-02-26T00:21:50;97833.06;;;3.65;100.00
72896;BME280;61036;53.224;6.554;2024-02-26T00:24:16;97826.47;;;3.70;100.00
72896;BME280;61036;53.224;6.554;2024-02-26T00:26:41;97826.56;;;3.78;100.00
72896;BME280;61036;53.224;6.554;2024-02-26T00:29:07;97837.13;;;3.70;100.00
72896;BME280;61036;53.224;6.554;2024-02-26T00:31:32;97835.81;;;3.83;100.00
72896;BME280;61036;53.224;6.554;2024-02-26T00:33:58;97841.94;;;3.94;100.00
72896;BME280;61036;53.224;6.554;2024-02-26T00:36:23;97861.47;;;3.84;100.00
72896;BME280;61036;53.224;6.554;2024-02-26T00:38:49;97877.63;;;3.83;100.00
72896;BME280;61036;53.224;6.554;2024-02-26T00:41:18;97875.03;;;4.01;100.00
72896;BME280;61036;53.224;6.554;2024-02-26T00:43:44;97893.00;;;3.99;100.00
72896;BME280;61036;53.224;6.554;2024-02-26T00:46:09;97922.38;;;3.89;100.00
72896;BME280;61036;53.224;6.554;2024-02-26T00:48:35;97934.81;;;3.98;100.00
72896;BME280;61036;53.224;6.554;2024-02-26T00:51:01;97954.34;;;3.89;100.00
72896;BME280;61036;53.224;6.554;2024-02-26T00:53:26;97955.16;;;3.99;100.00
72896;BME280;61036;53.224;6.554;2024-02-26T00:55:52;97972.19;;;3.88;100.00
72896;BME280;61036;53.224;6.554;2024-02-26T00:58:17;97982.25;;;3.85;100.00
72896;BME280;61036;53.224;6.554;2024-02-26T01:00:44;97986.63;;;3.86;100.00
72896;BME280;61036;53.224;6.554;2024-02-26T01:03:09;97986.91;;;3.83;100.00
72896;BME280;61036;53.224;6.554;2024-02-26T01:05:35;97990.56;;;3.92;100.00
72896;BME280;61036;53.224;6.554;2024-02-26T01:08:01;98000.34;;;3.91;100.00
72896;BME280;61036;53.224;6.554;2024-02-26T01:10:27;98006.97;;;3.87;100.00
72896;BME280;61036;53.224;6.554;2024-02-26T01:12:53;98015.09;;;3.76;100.00
72896;BME280;61036;53.224;6.554;2024-02-26T01:15:18;98002.91;;;3.83;100.00
72896;BME280;61036;53.224;6.554;2024-02-26T01:17:47;98014.41;;;3.83;100.00
72896;BME280;61036;53.224;6.554;2024-02-26T01:20:12;98023.13;;;3.85;100.00
72896;BME280;61036;53.224;6.554;2024-02-26T01:22:38;98044.44;;;3.85;100.00
72896;BME280;61036;53.224;6.554;2024-02-26T01:25:06;98052.56;;;3.84;100.00
72896;BME280;61036;53.224;6.554;2024-02-26T01:27:32;98073.47;;;3.79;100.00
72896;BME280;61036;53.224;6.554;2024-02-26T01:29:58;98078.81;;;3.88;100.00
72896;BME280;61036;53.224;6.554;2024-02-26T01:32:23;98091.72;;;3.83;100.00
72896;BME280;61036;53.224;6.554;2024-02-26T01:34:49;98114.31;;;3.79;100.00
72896;BME280;61036;53.224;6.554;2024-02-26T01:37:14;98138.97;;;3.72;100.00
72896;BME280;61036;53.224;6.554;2024-02-26T01:39:40;98134.47;;;3.82;100.00
72896;BME280;61036;53.224;6.554;2024-02-26T01:42:07;98138.56;;;3.76;100.00
72896;BME280;61036;53.224;6.554;2024-02-26T01:44:33;98138.97;;;3.72;100.00
72896;BME280;61036;53.224;6.554;2024-02-26T01:46:58;98129.59;;;3.77;100.00
72896;BME280;61036;53.224;6.554;2024-02-26T01:49:27;98130.03;;;3.82;100.00
72896;BME280;61036;53.224;6.554;2024-02-26T01:51:54;98127.75;;;3.87;100.00
72896;BME280;61036;53.224;6.554;2024-02-26T01:54:20;98141.81;;;3.80;100.00
72896;BME280;61036;53.224;6.554;2024-02-26T01:56:46;98129.03;;;3.93;100.00
72896;BME280;61036;53.224;6.554;2024-02-26T01:59:11;98118.50;;;4.01;100.00
72896;BME280;61036;53.224;6.554;2024-02-26T02:01:39;98146.28;;;3.89;100.00
72896;BME280;61036;53.224;6.554;2024-02-26T02:04:06;98167.91;;;3.76;100.00
72896;BME280;61036;53.224;6.554;2024-02-26T02:06:32;98160.88;;;3.85;100.00
72896;BME280;61036;53.224;6.554;2024-02-26T02:08:58;98168.72;;;3.77;100.00
72896;BME280;61036;53.224;6.554;2024-02-26T02:11:26;98174.88;;;3.67;100.00
72896;BME280;61036;53.224;6.554;2024-02-26T02:13:51;98165.91;;;3.78;100.00
72896;BME280;61036;53.224;6.554;2024-02-26T02:16:17;98176.56;;;3.69;100.00
72896;BME280;61036;53.224;6.554;2024-02-26T02:18:42;98166.63;;;3.71;100.00
72896;BME280;61036;53.224;6.554;2024-02-26T02:21:07;98169.13;;;3.62;100.00
72896;BME280;61036;53.224;6.554;2024-02-26T02:23:33;98165.06;;;3.58;100.00
72896;BME280;61036;53.224;6.554;2024-02-26T02:25:58;98152.56;;;3.59;100.00
72896;BME280;61036;53.224;6.554;2024-02-26T02:28:26;98137.16;;;3.72;100.00
72896;BME280;61036;53.224;6.554;2024-02-26T02:30:52;98155.22;;;3.49;100.00
72896;BME280;61036;53.224;6.554;2024-02-26T02:33:19;98148.47;;;3.55;100.00
72896;BME280;61036;53.224;6.554;2024-02-26T02:35:44;98152.66;;;3.38;100.00
72896;BME280;61036;53.224;6.554;2024-02-26T02:38:11;98140.19;;;3.48;100.00
72896;BME280;61036;53.224;6.554;2024-02-26T02:40:36;98149.56;;;3.42;100.00
72896;BME280;61036;53.224;6.554;2024-02-26T02:43:02;98131.09;;;3.51;100.00
72896;BME280;61036;53.224;6.554;2024-02-26T02:45:30;98128.28;;;3.52;100.00
72896;BME280;61036;53.224;6.554;2024-02-26T02:47:56;98140.47;;;3.45;100.00
72896;BME280;61036;53.224;6.554;2024-02-26T02:50:21;98138.34;;;3.49;100.00
72896;BME280;61036;53.224;6.554;2024-02-26T02:52:47;98131.66;;;3.54;100.00
72896;BME280;61036;53.224;6.554;2024-02-26T02:55:13;98142.00;;;3.48;100.00
72896;BME280;61036;53.224;6.554;2024-02-26T02:57:39;98145.13;;;3.53;100.00
72896;BME280;61036;53.224;6.554;2024-02-26T03:00:10;98155.91;;;3.51;100.00
72896;BME280;61036;53.224;6.554;2024-02-26T03:02:36;98165.16;;;3.47;100.00
72896;BME280;61036;53.224;6.554;2024-02-26T03:05:05;98166.44;;;3.53;100.00
72896;BME280;61036;53.224;6.554;2024-02-26T03:07:31;98173.97;;;3.48;100.00
72896;BME280;61036;53.224;6.554;2024-02-26T03:09:56;98180.56;;;3.43;100.00
72896;BME280;61036;53.224;6.554;2024-02-26T03:12:22;98182.25;;;3.44;100.00
72896;BME280;61036;53.224;6.554;2024-02-26T03:14:47;98187.00;;;3.41;100.00
72896;BME280;61036;53.224;6.554;2024-02-26T03:17:13;98190.50;;;3.41;100.00
72896;BME280;61036;53.224;6.554;2024-02-26T03:19:39;98198.19;;;3.35;100.00
72896;BME280;61036;53.224;6.554;2024-02-26T03:22:04;98183.94;;;3.46;100.00
72896;BME280;61036;53.224;6.554;2024-02-26T03:24:30;98196.69;;;3.42;100.00
72896;BME280;61036;53.224;6.554;2024-02-26T03:26:56;98217.41;;;3.38;100.00
72896;BME280;61036;53.224;6.554;2024-02-26T03:29:21;98206.38;;;3.43;100.00
72896;BME280;61036;53.224;6.554;2024-02-26T03:31:47;98221.34;;;3.34;100.00
72896;BME280;61036;53.224;6.554;2024-02-26T03:34:12;98222.88;;;3.37;100.00
72896;BME280;61036;53.224;6.554;2024-02-26T03:36:40;98206.94;;;3.47;100.00
72896;BME280;61036;53.224;6.554;2024-02-26T03:39:06;98215.78;;;3.47;100.00
72896;BME280;61036;53.224;6.554;2024-02-26T03:41:35;98206.03;;;3.67;100.00
72896;BME280;61036;53.224;6.554;2024-02-26T03:44:02;98226.44;;;3.47;100.00
72896;BME280;61036;53.224;6.554;2024-02-26T03:46:27;98220.94;;;3.49;100.00
72896;BME280;61036;53.224;6.554;2024-02-26T03:48:53;98223.22;;;3.53;100.00
72896;BME280;61036;53.224;6.554;2024-02-26T03:51:18;98225.19;;;3.61;100.00
72896;BME280;61036;53.224;6.554;2024-02-26T03:53:44;98243.28;;;3.57;100.00
72896;BME280;61036;53.224;6.554;2024-02-26T03:56:12;98231.41;;;3.71;100.00
72896;BME280;61036;53.224;6.554;2024-02-26T03:58:38;98258.63;;;3.65;100.00
72896;BME280;61036;53.224;6.554;2024-02-26T04:01:04;98268.81;;;3.60;100.00
72896;BME280;61036;53.224;6.554;2024-02-26T04:03:32;98271.53;;;3.70;100.00
72896;BME280;61036;53.224;6.554;2024-02-26T04:05:57;98282.44;;;3.66;100.00
72896;BME280;61036;53.224;6.554;2024-02-26T04:08:23;98297.41;;;3.58;100.00
72896;BME280;61036;53.224;6.554;2024-02-26T04:10:48;98297.56;;;3.56;100.00
72896;BME280;61036;53.224;6.554;2024-02-26T04:13:14;98303.00;;;3.55;100.00
72896;BME280;61036;53.224;6.554;2024-02-26T04:15:40;98303.34;;;3.61;100.00
72896;BME280;61036;53.224;6.554;2024-02-26T04:18:05;98308.41;;;3.64;100.00
72896;BME280;61036;53.224;6.554;2024-02-26T04:20:31;98307.53;;;3.64;100.00
72896;BME280;61036;53.224;6.554;2024-02-26T04:22:56;98305.06;;;3.72;100.00
72896;BME280;61036;53.224;6.554;2024-02-26T04:25:22;98308.97;;;3.68;100.00
72896;BME280;61036;53.224;6.554;2024-02-26T04:27:47;98305.63;;;3.76;100.00
72896;BME280;61036;53.224;6.554;2024-02-26T04:30:13;98314.22;;;3.79;100.00
72896;BME280;61036;53.224;6.554;2024-02-26T04:32:38;98328.13;;;3.83;100.00
72896;BME280;61036;53.224;6.554;2024-02-26T04:35:04;98337.22;;;3.80;100.00
72896;BME280;61036;53.224;6.554;2024-02-26T04:37:30;98345.69;;;3.85;100.00
72896;BME280;61036;53.224;6.554;2024-02-26T04:39:58;98359.28;;;3.82;100.00
72896;BME280;61036;53.224;6.554;2024-02-26T04:42:24;98368.50;;;3.78;100.00
72896;BME280;61036;53.224;6.554;2024-02-26T04:44:50;98365.56;;;3.81;100.00
72896;BME280;61036;53.224;6.554;2024-02-26T04:47:15;98376.22;;;3.81;100.00
72896;BME280;61036;53.224;6.554;2024-02-26T04:49:41;98382.47;;;3.92;100.00
72896;BME280;61036;53.224;6.554;2024-02-26T04:52:06;98394.63;;;3.84;100.00
72896;BME280;61036;53.224;6.554;2024-02-26T04:54:32;98406.00;;;3.86;100.00
72896;BME280;61036;53.224;6.554;2024-02-26T04:56:58;98413.84;;;3.88;100.00
72896;BME280;61036;53.224;6.554;2024-02-26T04:59:24;98422.56;;;3.90;100.00
72896;BME280;61036;53.224;6.554;2024-02-26T05:01:49;98421.09;;;3.97;100.00
72896;BME280;61036;53.224;6.554;2024-02-26T05:04:17;98430.88;;;3.97;100.00
72896;BME280;61036;53.224;6.554;2024-02-26T05:06:42;98449.38;;;3.88;100.00
72896;BME280;61036;53.224;6.554;2024-02-26T05:09:07;98446.56;;;3.90;100.00
72896;BME280;61036;53.224;6.554;2024-02-26T05:11:33;98444.81;;;4.00;100.00
72896;BME280;61036;53.224;6.554;2024-02-26T05:13:59;98447.50;;;4.00;100.00
72896;BME280;61036;53.224;6.554;2024-02-26T05:16:26;98459.00;;;4.01;100.00
72896;BME280;61036;53.224;6.554;2024-02-26T05:18:53;98489.03;;;3.82;100.00
72896;BME280;61036;53.224;6.554;2024-02-26T05:21:18;98499.91;;;3.90;100.00
72896;BME280;61036;53.224;6.554;2024-02-26T05:23:43;98493.78;;;3.99;100.00
72896;BME280;61036;53.224;6.554;2024-02-26T05:26:10;98510.56;;;3.90;100.00
72896;BME280;61036;53.224;6.554;2024-02-26T05:28:36;98510.44;;;3.92;100.00
72896;BME280;61036;53.224;6.554;2024-02-26T05:31:05;98521.53;;;3.97;100.00
72896;BME280;61036;53.224;6.554;2024-02-26T05:33:30;98531.63;;;3.93;100.00
72896;BME280;61036;53.224;6.554;2024-02-26T05:35:56;98522.72;;;4.04;100.00
72896;BME280;61036;53.224;6.554;2024-02-26T05:38:21;98546.53;;;3.96;100.00
72896;BME280;61036;53.224;6.554;2024-02-26T05:40:47;98552.19;;;4.02;100.00
72896;BME280;61036;53.224;6.554;2024-02-26T05:43:12;98560.34;;;4.01;100.00
72896;BME280;61036;53.224;6.554;2024-02-26T05:45:40;98566.09;;;4.06;100.00
72896;BME280;61036;53.224;6.554;2024-02-26T05:48:06;98591.13;;;3.94;100.00
72896;BME280;61036;53.224;6.554;2024-02-26T05:50:32;98597.53;;;4.02;100.00
72896;BME280;61036;53.224;6.554;2024-02-26T05:52:57;98604.69;;;4.02;100.00
72896;BME280;61036;53.224;6.554;2024-02-26T05:55:23;98604.69;;;4.02;100.00
72896;BME280;61036;53.224;6.554;2024-02-26T05:57:48;98612.34;;;3.95;100.00
72896;BME280;61036;53.224;6.554;2024-02-26T06:00:15;98614.63;;;4.00;100.00
72896;BME280;61036;53.224;6.554;2024-02-26T06:02:40;98621.53;;;4.02;100.00
72896;BME280;61036;53.224;6.554;2024-02-26T06:05:06;98627.94;;;4.00;100.00
72896;BME280;61036;53.224;6.554;2024-02-26T06:07:34;98630.84;;;4.08;100.00
72896;BME280;61036;53.224;6.554;2024-02-26T06:10:00;98644.31;;;4.06;100.00
72896;BME280;61036;53.224;6.554;2024-02-26T06:12:25;98647.94;;;4.05;100.00
72896;BME280;61036;53.224;6.554;2024-02-26T06:14:53;98653.19;;;3.96;100.00
72896;BME280;61036;53.224;6.554;2024-02-26T06:17:19;98652.09;;;3.98;100.00
72896;BME280;61036;53.224;6.554;2024-02-26T06:19:45;98655.25;;;4.03;100.00
72896;BME280;61036;53.224;6.554;2024-02-26T06:22:10;98646.31;;;4.14;100.00
72896;BME280;61036;53.224;6.554;2024-02-26T06:24:36;98671.34;;;4.02;100.00
72896;BME280;61036;53.224;6.554;2024-02-26T06:27:02;98675.59;;;4.04;100.00
72896;BME280;61036;53.224;6.554;2024-02-26T06:29:28;98687.56;;;4.10;100.00
72896;BME280;61036;53.224;6.554;2024-02-26T06:31:54;98686.56;;;4.22;100.00
72896;BME280;61036;53.224;6.554;2024-02-26T06:34:20;98694.81;;;4.19;100.00
72896;BME280;61036;53.224;6.554;2024-02-26T06:36:46;98695.06;;;4.16;100.00
72896;BME280;61036;53.224;6.554;2024-02-26T06:39:12;98690.06;;;4.23;100.00
72896;BME280;61036;53.224;6.554;2024-02-26T06:41:38;98699.16;;;4.20;100.00
72896;BME280;61036;53.224;6.554;2024-02-26T06:44:05;98704.81;;;4.27;100.00
72896;BME280;61036;53.224;6.554;2024-02-26T06:46:30;98713.47;;;4.19;100.00
72896;BME280;61036;53.224;6.554;2024-02-26T06:48:56;98718.78;;;4.30;100.00
72896;BME280;61036;53.224;6.554;2024-02-26T06:51:22;98724.81;;;4.32;100.00
72896;BME280;61036;53.224;6.554;2024-02-26T06:53:48;98719.13;;;4.37;100.00
72896;BME280;61036;53.224;6.554;2024-02-26T06:56:14;98715.47;;;4.38;100.00
72896;BME280;61036;53.224;6.554;2024-02-26T06:58:39;98712.22;;;4.34;100.00
72896;BME280;61036;53.224;6.554;2024-02-26T07:01:05;98719.47;;;4.32;100.00
72896;BME280;61036;53.224;6.554;2024-02-26T07:03:30;98720.06;;;4.36;100.00
72896;BME280;61036;53.224;6.554;2024-02-26T07:05:56;98722.84;;;4.46;100.00
72896;BME280;61036;53.224;6.554;2024-02-26T07:08:22;98745.88;;;4.47;100.00
72896;BME280;61036;53.224;6.554;2024-02-26T07:10:47;98752.78;;;4.49;100.00
72896;BME280;61036;53.224;6.554;2024-02-26T07:13:13;98773.44;;;4.36;100.00
72896;BME280;61036;53.224;6.554;2024-02-26T07:15:38;98774.06;;;4.40;100.00
72896;BME280;61036;53.224;6.554;2024-02-26T07:18:04;98778.88;;;4.46;100.00
72896;BME280;61036;53.224;6.554;2024-02-26T07:20:30;98783.56;;;4.53;100.00
72896;BME280;61036;53.224;6.554;2024-02-26T07:22:56;98805.91;;;4.52;100.00
72896;BME280;61036;53.224;6.554;2024-02-26T07:25:22;98831.25;;;4.58;100.00
72896;BME280;61036;53.224;6.554;2024-02-26T07:27:50;98844.94;;;4.65;100.00
72896;BME280;61036;53.224;6.554;2024-02-26T07:30:15;98863.53;;;4.55;100.00
72896;BME280;61036;53.224;6.554;2024-02-26T07:32:42;98869.97;;;4.52;100.00
72896;BME280;61036;53.224;6.554;2024-02-26T07:35:08;98867.97;;;4.66;100.00
72896;BME280;61036;53.224;6.554;2024-02-26T07:37:34;98874.41;;;4.63;100.00
72896;BME280;61036;53.224;6.554;2024-02-26T07:40:00;98894.47;;;4.57;100.00
72896;BME280;61036;53.224;6.554;2024-02-26T07:42:25;98883.63;;;4.70;100.00
72896;BME280;61036;53.224;6.554;2024-02-26T07:44:51;98903.53;;;4.66;100.00
72896;BME280;61036;53.224;6.554;2024-02-26T07:47:18;98929.09;;;4.37;100.00
72896;BME280;61036;53.224;6.554;2024-02-26T07:49:44;98918.09;;;4.62;100.00
72896;BME280;61036;53.224;6.554;2024-02-26T07:52:10;98917.13;;;4.63;100.00
72896;BME280;61036;53.224;6.554;2024-02-26T07:54:35;98940.22;;;4.53;100.00
72896;BME280;61036;53.224;6.554;2024-02-26T07:57:01;98949.41;;;4.60;100.00
72896;BME280;61036;53.224;6.554;2024-02-26T07:59:29;98934.22;;;4.72;100.00
72896;BME280;61036;53.224;6.554;2024-02-26T08:01:54;98953.06;;;4.70;100.00
72896;BME280;61036;53.224;6.554;2024-02-26T08:04:19;98961.03;;;4.81;100.00
72896;BME280;61036;53.224;6.554;2024-02-26T08:06:45;98975.84;;;4.86;100.00
72896;BME280;61036;53.224;6.554;2024-02-26T08:09:11;98976.09;;;4.82;100.00
72896;BME280;61036;53.224;6.554;2024-02-26T08:11:38;98988.50;;;4.72;100.00
72896;BME280;61036;53.224;6.554;2024-02-26T08:14:03;98995.03;;;4.91;100.00
72896;BME280;61036;53.224;6.554;2024-02-26T08:16:29;98996.44;;;4.95;100.00
72896;BME280;61036;53.224;6.554;2024-02-26T08:18:55;98985.25;;;5.12;100.00
72896;BME280;61036;53.224;6.554;2024-02-26T08:21:20;98990.09;;;5.18;100.00
72896;BME280;61036;53.224;6.554;2024-02-26T08:23:45;99009.53;;;5.09;100.00
72896;BME280;61036;53.224;6.554;2024-02-26T08:26:11;99016.81;;;5.07;100.00
72896;BME280;61036;53.224;6.554;2024-02-26T08:28:37;99014.41;;;5.04;100.00
72896;BME280;61036;53.224;6.554;2024-02-26T08:31:03;99021.69;;;5.02;100.00
72896;BME280;61036;53.224;6.554;2024-02-26T08:33:29;99019.13;;;5.12;100.00
72896;BME280;61036;53.224;6.554;2024-02-26T08:35:56;99021.66;;;5.13;100.00
72896;BME280;61036;53.224;6.554;2024-02-26T08:38:22;99025.06;;;5.26;100.00
72896;BME280;61036;53.224;6.554;2024-02-26T08:40:48;99050.72;;;5.07;100.00
72896;BME280;61036;53.224;6.554;2024-02-26T08:43:14;99067.47;;;4.97;100.00
72896;BME280;61036;53.224;6.554;2024-02-26T08:45:40;99055.41;;;5.25;100.00
72896;BME280;61036;53.224;6.554;2024-02-26T08:48:06;99082.53;;;5.10;100.00
72896;BME280;61036;53.224;6.554;2024-02-26T08:50:31;99102.09;;;4.88;100.00
72896;BME280;61036;53.224;6.554;2024-02-26T08:52:57;99079.97;;;5.08;100.00
72896;BME280;61036;53.224;6.554;2024-02-26T08:55:22;99080.34;;;5.15;100.00
72896;BME280;61036;53.224;6.554;2024-02-26T08:57:48;99067.06;;;5.24;100.00
72896;BME280;61036;53.224;6.554;2024-02-26T09:00:14;99058.38;;;5.43;100.00
72896;BME280;61036;53.224;6.554;2024-02-26T09:02:41;99051.09;;;5.45;100.00
72896;BME280;61036;53.224;6.554;2024-02-26T09:05:09;99050.34;;;5.55;100.00
72896;BME280;61036;53.224;6.554;2024-02-26T09:07:35;99054.19;;;5.62;100.00
72896;BME280;61036;53.224;6.554;2024-02-26T09:10:01;99078.44;;;5.49;100.00
72896;BME280;61036;53.224;6.554;2024-02-26T09:12:27;99097.66;;;5.20;100.00
72896;BME280;61036;53.224;6.554;2024-02-26T09:14:52;99093.41;;;5.29;100.00
72896;BME280;61036;53.224;6.554;2024-02-26T09:17:18;99106.44;;;5.22;100.00
72896;BME280;61036;53.224;6.554;2024-02-26T09:19:43;99090.59;;;5.42;100.00
72896;BME280;61036;53.224;6.554;2024-02-26T09:22:09;99104.56;;;5.45;100.00
72896;BME280;61036;53.224;6.554;2024-02-26T09:24:36;99119.28;;;5.28;100.00
72896;BME280;61036;53.224;6.554;2024-02-26T09:27:01;99103.41;;;5.59;100.00
72896;BME280;61036;53.224;6.554;2024-02-26T09:29:26;99115.75;;;5.50;100.00
72896;BME280;61036;53.224;6.554;2024-02-26T09:31:52;99116.03;;;5.68;100.00
72896;BME280;61036;53.224;6.554;2024-02-26T09:34:18;99128.97;;;5.63;100.00
72896;BME280;61036;53.224;6.554;2024-02-26T09:36:43;99137.09;;;5.62;100.00
72896;BME280;61036;53.224;6.554;2024-02-26T09:39:09;99127.47;;;5.70;100.00
72896;BME280;61036;53.224;6.554;2024-02-26T09:41:37;99116.34;;;5.98;100.00
72896;BME280;61036;53.224;6.554;2024-02-26T09:44:04;99139.59;;;5.74;100.00
72896;BME280;61036;53.224;6.554;2024-02-26T09:46:30;99160.22;;;5.40;100.00
72896;BME280;61036;53.224;6.554;2024-02-26T09:48:56;99165.31;;;5.55;100.00
72896;BME280;61036;53.224;6.554;2024-02-26T09:51:24;99161.63;;;5.67;100.00
72896;BME280;61036;53.224;6.554;2024-02-26T09:53:51;99153.72;;;5.77;100.00
72896;BME280;61036;53.224;6.554;2024-02-26T09:56:17;99153.94;;;5.96;100.00
72896;BME280;61036;53.224;6.554;2024-02-26T09:58:43;99166.72;;;5.70;100.00
72896;BME280;61036;53.224;6.554;2024-02-26T10:01:13;99188.50;;;5.65;100.00
72896;BME280;61036;53.224;6.554;2024-02-26T10:03:42;99196.84;;;5.83;100.00
72896;BME280;61036;53.224;6.554;2024-02-26T10:06:13;99192.50;;;5.93;100.00
72896;BME280;61036;53.224;6.554;2024-02-26T10:08:40;99214.47;;;5.86;100.00
72896;BME280;61036;53.224;6.554;2024-02-26T10:11:07;99233.47;;;5.94;100.00
72896;BME280;61036;53.224;6.554;2024-02-26T10:13:35;99237.13;;;5.93;100.00
72896;BME280;61036;53.224;6.554;2024-02-26T10:16:02;99263.50;;;5.64;100.00
72896;BME280;61036;53.224;6.554;2024-02-26T10:18:48;99248.88;;;5.90;100.00
72896;BME280;61036;53.224;6.554;2024-02-26T10:21:16;99254.22;;;6.02;100.00
72896;BME280;61036;53.224;6.554;2024-02-26T10:23:44;99269.84;;;5.63;100.00
72896;BME280;61036;53.224;6.554;2024-02-26T10:26:11;99277.13;;;5.61;100.00
72896;BME280;61036;53.224;6.554;2024-02-26T10:28:45;99279.16;;;5.91;100.00
72896;BME280;61036;53.224;6.554;2024-02-26T10:31:11;99300.69;;;5.67;100.00
72896;BME280;61036;53.224;6.554;2024-02-26T10:33:39;99298.97;;;5.77;100.00
72896;BME280;61036;53.224;6.554;2024-02-26T10:36:07;99293.38;;;5.91;100.00
72896;BME280;61036;53.224;6.554;2024-02-26T10:38:35;99302.53;;;6.00;100.00
72896;BME280;61036;53.224;6.554;2024-02-26T10:41:05;99296.69;;;5.95;100.00
72896;BME280;61036;53.224;6.554;2024-02-26T10:43:31;99300.44;;;6.04;100.00
72896;BME280;61036;53.224;6.554;2024-02-26T10:45:57;99307.25;;;5.74;100.00
72896;BME280;61036;53.224;6.554;2024-02-26T10:48:23;99308.00;;;5.99;100.00
72896;BME280;61036;53.224;6.554;2024-02-26T10:50:49;99319.56;;;5.99;100.00
72896;BME280;61036;53.224;6.554;2024-02-26T10:53:22;99326.47;;;5.90;100.00
72896;BME280;61036;53.224;6.554;2024-02-26T10:55:57;99321.25;;;6.11;100.00
72896;BME280;61036;53.224;6.554;2024-02-26T10:58:23;99319.91;;;6.17;100.00
72896;BME280;61036;53.224;6.554;2024-02-26T11:00:53;99313.56;;;6.18;100.00
72896;BME280;61036;53.224;6.554;2024-02-26T11:03:20;99336.34;;;6.01;100.00
72896;BME280;61036;53.224;6.554;2024-02-26T11:05:49;99326.69;;;6.32;100.00
72896;BME280;61036;53.224;6.554;2024-02-26T11:08:19;99332.63;;;6.47;100.00
72896;BME280;61036;53.224;6.554;2024-02-26T11:10:48;99335.69;;;6.31;100.00
72896;BME280;61036;53.224;6.554;2024-02-26T11:13:18;99343.88;;;6.18;100.00
72896;BME280;61036;53.224;6.554;2024-02-26T11:15:46;99356.63;;;5.92;100.00
72896;BME280;61036;53.224;6.554;2024-02-26T11:18:15;99346.94;;;6.03;100.00
72896;BME280;61036;53.224;6.554;2024-02-26T11:20:41;99355.78;;;5.81;100.00
72896;BME280;61036;53.224;6.554;2024-02-26T11:23:07;99343.03;;;6.18;100.00
72896;BME280;61036;53.224;6.554;2024-02-26T11:25:35;99341.53;;;6.36;100.00
72896;BME280;61036;53.224;6.554;2024-02-26T11:28:05;99352.31;;;6.46;100.00
72896;BME280;61036;53.224;6.554;2024-02-26T11:30:33;99365.38;;;6.28;100.00
72896;BME280;61036;53.224;6.554;2024-02-26T11:33:00;99362.94;;;6.25;100.00
72896;BME280;61036;53.224;6.554;2024-02-26T11:35:28;99370.38;;;6.22;100.00
72896;BME280;61036;53.224;6.554;2024-02-26T11:37:57;99368.53;;;6.45;100.00
72896;BME280;61036;53.224;6.554;2024-02-26T11:40:24;99374.84;;;6.44;100.00
72896;BME280;61036;53.224;6.554;2024-02-26T11:42:51;99378.66;;;6.41;100.00
72896;BME280;61036;53.224;6.554;2024-02-26T11:48:12;99391.06;;;6.42;100.00
72896;BME280;61036;53.224;6.554;2024-02-26T11:50:54;99377.97;;;6.71;100.00
72896;BME280;61036;53.224;6.554;2024-02-26T11:53:32;99394.41;;;6.67;100.00
72896;BME280;61036;53.224;6.554;2024-02-26T11:59:09;99417.97;;;6.29;100.00
72896;BME280;61036;53.224;6.554;2024-02-26T12:01:47;99413.81;;;6.25;100.00
72896;BME280;61036;53.224;6.554;2024-02-26T12:04:14;99399.06;;;6.53;100.00
72896;BME280;61036;53.224;6.554;2024-02-26T12:06:42;99385.63;;;6.64;100.00
72896;BME280;61036;53.224;6.554;2024-02-26T12:09:08;99384.09;;;6.62;100.00
72896;BME280;61036;53.224;6.554;2024-02-26T12:11:38;99392.03;;;6.41;100.00
72896;BME280;61036;53.224;6.554;2024-02-26T12:14:05;99383.13;;;6.40;100.00
72896;BME280;61036;53.224;6.554;2024-02-26T12:16:36;99379.34;;;6.43;100.00
72896;BME280;61036;53.224;6.554;2024-02-26T12:19:08;99354.44;;;6.75;100.00
72896;BME280;61036;53.224;6.554;2024-02-26T12:21:37;99356.41;;;6.61;100.00
72896;BME280;61036;53.224;6.554;2024-02-26T12:24:13;99375.81;;;6.54;100.00
72896;BME280;61036;53.224;6.554;2024-02-26T12:26:40;99382.53;;;6.37;100.00
72896;BME280;61036;53.224;6.554;2024-02-26T12:29:06;99390.22;;;6.19;100.00
72896;BME280;61036;53.224;6.554;2024-02-26T12:31:33;99391.31;;;6.16;100.00
72896;BME280;61036;53.224;6.554;2024-02-26T12:34:01;99394.84;;;6.06;100.00
72896;BME280;61036;53.224;6.554;2024-02-26T12:36:28;99386.44;;;6.10;100.00
72896;BME280;61036;53.224;6.554;2024-02-26T12:38:54;99391.44;;;6.15;100.00
72896;BME280;61036;53.224;6.554;2024-02-26T12:41:21;99382.06;;;6.32;100.00
72896;BME280;61036;53.224;6.554;2024-02-26T12:43:46;99382.41;;;6.38;100.00
72896;BME280;61036;53.224;6.554;2024-02-26T12:46:12;99389.97;;;6.45;100.00
72896;BME280;61036;53.224;6.554;2024-02-26T12:48:44;99405.78;;;6.25;100.00
72896;BME280;61036;53.224;6.554;2024-02-26T12:51:12;99403.25;;;6.35;100.00
72896;BME280;61036;53.224;6.554;2024-02-26T12:53:38;99404.69;;;6.39;100.00
72896;BME280;61036;53.224;6.554;2024-02-26T12:56:06;99413.69;;;6.15;100.00
72896;BME280;61036;53.224;6.554;2024-02-26T12:58:33;99419.78;;;6.06;100.00
72896;BME280;61036;53.224;6.554;2024-02-26T13:00:59;99426.03;;;5.60;100.00